createdAt,value
2023-03-10T00:01:29.743Z,6.93
2023-03-10T00:03:59.780Z,6.94
2023-03-10T00:06:30.138Z,6.93
2023-03-10T00:08:59.744Z,6.91
2023-03-10T00:11:28.247Z,6.89
2023-03-10T00:13:58.074Z,6.87
2023-03-10T00:16:33.758Z,6.87
2023-03-10T00:19:04.471Z,6.86
2023-03-10T00:21:33.443Z,6.85
2023-03-10T00:24:02.114Z,6.83
2023-03-10T00:26:31.852Z,6.83
2023-03-10T00:29:00.293Z,6.82
2023-03-10T00:31:31.635Z,6.80
2023-03-10T00:34:00.829Z,6.79
2023-03-10T00:36:31.869Z,6.79
2023-03-10T00:39:05.114Z,6.78
2023-03-10T00:41:41.736Z,6.79
2023-03-10T00:44:10.363Z,6.79
2023-03-10T00:46:39.742Z,6.80
2023-03-10T00:49:10.378Z,6.80
2023-03-10T00:51:38.691Z,6.81
2023-03-10T00:54:07.244Z,6.81
2023-03-10T00:56:36.701Z,6.82
2023-03-10T00:59:07.555Z,6.81
2023-03-10T01:01:40.058Z,6.80
2023-03-10T01:04:13.382Z,6.80
2023-03-10T01:06:42.566Z,6.79
2023-03-10T01:09:12.774Z,6.78
2023-03-10T01:11:43.093Z,6.77
2023-03-10T01:14:13.900Z,6.76
2023-03-10T01:16:42.608Z,6.75
2023-03-10T01:19:11.328Z,6.74
2023-03-10T01:21:39.918Z,6.73
2023-03-10T01:24:08.390Z,6.70
2023-03-10T01:26:38.696Z,6.68
2023-03-10T01:29:08.089Z,6.66
2023-03-10T01:31:36.732Z,6.63
2023-03-10T01:34:06.176Z,6.60
2023-03-10T01:36:34.645Z,6.57
2023-03-10T01:39:03.522Z,6.55
2023-03-10T01:41:32.073Z,6.53
2023-03-10T01:44:00.859Z,6.52
2023-03-10T01:46:42.877Z,6.50
2023-03-10T01:49:41.904Z,6.48
2023-03-10T01:52:10.385Z,6.45
2023-03-10T01:55:00.006Z,6.43
2023-03-10T01:57:31.004Z,6.41
2023-03-10T01:59:59.856Z,6.38
2023-03-10T02:02:28.926Z,6.36
2023-03-10T02:04:57.696Z,6.34
2023-03-10T02:07:31.943Z,6.33
2023-03-10T02:10:00.591Z,6.31
2023-03-10T02:12:29.457Z,6.28
2023-03-10T02:15:01.696Z,6.26
2023-03-10T02:17:31.335Z,6.24
2023-03-10T02:20:04.568Z,6.21
2023-03-10T02:22:34.505Z,6.20
2023-03-10T02:25:24.991Z,6.18
2023-03-10T02:27:54.086Z,6.16
2023-03-10T02:30:43.781Z,6.15
2023-03-10T02:33:15.761Z,6.12
2023-03-10T02:35:45.905Z,6.10
2023-03-10T02:38:17.388Z,6.10
2023-03-10T02:40:50.213Z,6.08
2023-03-10T02:43:27.137Z,6.05
2023-03-10T02:46:02.691Z,6.02
2023-03-10T02:48:33.205Z,6.00
2023-03-10T02:51:03.816Z,5.97
2023-03-10T02:53:32.377Z,5.93
2023-03-10T02:56:01.174Z,5.92
2023-03-10T02:58:31.237Z,5.90
2023-03-10T03:01:05.749Z,5.88
2023-03-10T03:03:37.115Z,5.89
2023-03-10T03:06:06.296Z,5.87
2023-03-10T03:08:36.022Z,5.87
2023-03-10T03:11:06.122Z,5.86
2023-03-10T03:13:34.946Z,5.85
2023-03-10T03:16:07.014Z,5.82
2023-03-10T03:18:37.212Z,5.81
2023-03-10T03:21:12.915Z,5.78
2023-03-10T03:23:41.888Z,5.76
2023-03-10T03:26:15.562Z,5.75
2023-03-10T03:28:45.772Z,5.75
2023-03-10T03:31:20.394Z,5.73
2023-03-10T03:33:53.284Z,5.73
2023-03-10T03:36:22.923Z,5.72
2023-03-10T03:38:51.702Z,5.71
2023-03-10T03:41:20.403Z,5.68
2023-03-10T03:43:49.884Z,5.66
2023-03-10T03:46:19.049Z,5.65
2023-03-10T03:48:47.929Z,5.64
2023-03-10T03:51:16.342Z,5.64
2023-03-10T03:53:44.951Z,5.63
2023-03-10T03:56:14.051Z,5.62
2023-03-10T03:58:45.014Z,5.62
2023-03-10T04:01:14.371Z,5.62
2023-03-10T04:03:46.480Z,5.61
2023-03-10T04:06:16.617Z,5.62
2023-03-10T04:08:46.311Z,5.61
2023-03-10T04:11:15.620Z,5.60
2023-03-10T04:13:45.031Z,5.60
2023-03-10T04:16:13.737Z,5.62
2023-03-10T04:18:42.515Z,5.62
2023-03-10T04:21:13.505Z,5.58
2023-03-10T04:23:44.015Z,5.54
2023-03-10T04:26:14.915Z,5.52
2023-03-10T04:28:43.881Z,5.49
2023-03-10T04:31:15.480Z,5.48
2023-03-10T04:33:45.784Z,5.48
2023-03-10T04:36:14.650Z,5.49
2023-03-10T04:38:43.989Z,5.51
2023-03-10T04:41:12.670Z,5.53
2023-03-10T04:43:45.653Z,5.58
2023-03-10T04:46:16.654Z,5.62
2023-03-10T04:48:46.527Z,5.65
2023-03-10T04:51:15.986Z,5.68
2023-03-10T04:53:50.861Z,5.70
2023-03-10T04:56:21.615Z,5.73
2023-03-10T04:58:51.429Z,5.75
2023-03-10T05:01:20.012Z,5.77
2023-03-10T05:03:52.412Z,5.79
2023-03-10T05:06:21.710Z,5.78
2023-03-10T05:09:10.710Z,5.80
2023-03-10T05:11:40.206Z,5.82
2023-03-10T05:14:10.522Z,5.84
2023-03-10T05:16:39.014Z,5.86
2023-03-10T05:19:09.378Z,5.86
2023-03-10T05:21:41.840Z,5.87
2023-03-10T05:24:11.213Z,5.91
2023-03-10T05:26:40.336Z,5.93
2023-03-10T05:29:09.989Z,5.95
2023-03-10T05:31:45.616Z,5.98
2023-03-10T05:34:25.629Z,6.01
2023-03-10T05:36:56.769Z,6.03
2023-03-10T05:39:25.737Z,6.05
2023-03-10T05:41:55.760Z,6.07
2023-03-10T05:44:26.688Z,6.11
2023-03-10T05:46:55.561Z,6.16
2023-03-10T05:49:24.753Z,6.22
2023-03-10T05:51:53.508Z,6.26
2023-03-10T05:54:22.597Z,6.29
2023-03-10T05:56:51.280Z,6.30
2023-03-10T05:59:21.862Z,6.30
2023-03-10T06:01:50.748Z,6.29
2023-03-10T06:04:19.873Z,6.27
2023-03-10T06:06:50.148Z,6.27
2023-03-10T06:09:18.910Z,6.31
2023-03-10T06:11:50.145Z,6.42
2023-03-10T06:14:21.679Z,6.55
2023-03-10T06:16:53.079Z,6.74
2023-03-10T06:19:27.692Z,6.94
2023-03-10T06:21:56.775Z,7.09
2023-03-10T06:24:25.494Z,7.14
2023-03-10T06:26:55.641Z,7.17
2023-03-10T06:29:24.379Z,7.24
2023-03-10T06:31:52.985Z,7.30
2023-03-10T06:34:21.513Z,7.35
2023-03-10T06:36:49.966Z,7.36
2023-03-10T06:39:18.632Z,7.37
2023-03-10T06:41:47.484Z,7.41
2023-03-10T06:44:19.269Z,7.46
2023-03-10T06:46:47.951Z,7.52
2023-03-10T06:49:17.332Z,7.62
2023-03-10T06:51:45.701Z,7.67
2023-03-10T06:54:14.125Z,7.71
2023-03-10T06:56:42.996Z,7.75
2023-03-10T06:59:12.045Z,7.82
2023-03-10T07:01:40.590Z,8.00
2023-03-10T07:04:11.173Z,8.24
2023-03-10T07:06:40.313Z,8.53
2023-03-10T07:09:24.251Z,8.81
2023-03-10T07:11:56.334Z,9.04
2023-03-10T07:14:25.561Z,9.29
2023-03-10T07:16:54.493Z,9.60
2023-03-10T07:19:23.566Z,9.91
2023-03-10T07:21:54.399Z,10.21
2023-03-10T07:24:22.942Z,10.50
2023-03-10T07:26:51.735Z,10.75
2023-03-10T07:29:20.714Z,10.85
2023-03-10T07:31:49.351Z,10.99
2023-03-10T07:34:19.146Z,11.20
2023-03-10T07:36:48.037Z,11.43
2023-03-10T07:39:17.072Z,11.74
2023-03-10T07:41:45.525Z,11.96
2023-03-10T07:44:15.667Z,12.10
2023-03-10T07:46:44.888Z,12.25
2023-03-10T07:49:16.729Z,12.37
2023-03-10T07:51:46.211Z,12.42
2023-03-10T07:54:14.648Z,12.52
2023-03-10T07:56:43.314Z,12.65
2023-03-10T07:59:12.574Z,12.86
2023-03-10T08:01:43.054Z,13.11
2023-03-10T08:04:12.966Z,13.11
2023-03-10T08:06:42.289Z,13.00
2023-03-10T08:09:11.050Z,13.03
2023-03-10T08:11:41.326Z,13.19
2023-03-10T08:14:09.836Z,13.34
2023-03-10T08:16:43.317Z,13.45
2023-03-10T08:19:11.789Z,13.66
2023-03-10T08:21:40.372Z,13.78
2023-03-10T08:24:11.719Z,13.68
2023-03-10T08:26:40.311Z,13.79
2023-03-10T08:29:10.260Z,14.03
2023-03-10T08:31:38.781Z,14.16
2023-03-10T08:34:08.821Z,14.03
2023-03-10T08:36:39.083Z,13.78
2023-03-10T08:39:08.266Z,13.56
2023-03-10T08:41:46.419Z,13.52
2023-03-10T08:44:18.162Z,13.63
2023-03-10T08:46:47.768Z,13.80
2023-03-10T08:49:18.190Z,14.04
2023-03-10T08:51:46.880Z,14.14
2023-03-10T08:54:17.678Z,14.33
2023-03-10T08:56:46.772Z,14.46
2023-03-10T08:59:15.761Z,14.40
2023-03-10T09:01:44.360Z,14.42
2023-03-10T09:04:13.550Z,14.52
2023-03-10T09:06:42.144Z,14.56
2023-03-10T09:09:11.454Z,14.61
2023-03-10T09:11:45.057Z,14.63
2023-03-10T09:14:17.024Z,14.70
2023-03-10T09:16:46.658Z,14.67
2023-03-10T09:19:16.477Z,14.52
2023-03-10T09:21:46.093Z,14.41
2023-03-10T09:24:14.689Z,14.63
2023-03-10T09:26:44.880Z,15.06
2023-03-10T09:29:17.494Z,15.23
2023-03-10T09:31:48.584Z,15.00
2023-03-10T09:34:22.890Z,14.77
2023-03-10T09:36:57.675Z,14.56
2023-03-10T09:39:27.071Z,14.33
2023-03-10T09:42:26.109Z,14.10
2023-03-10T09:45:27.147Z,13.89
2023-03-10T09:48:14.804Z,13.87
2023-03-10T09:50:46.977Z,14.07
2023-03-10T09:53:43.675Z,14.16
2023-03-10T09:56:17.426Z,14.33
2023-03-10T09:58:47.531Z,14.57
2023-03-10T10:01:20.089Z,14.64
2023-03-10T10:04:14.312Z,14.69
2023-03-10T10:06:46.988Z,14.70
2023-03-10T10:09:26.036Z,14.58
2023-03-10T10:11:56.430Z,14.35
2023-03-10T10:14:32.744Z,14.30
2023-03-10T10:17:07.903Z,14.29
2023-03-10T10:19:39.700Z,14.36
2023-03-10T10:22:34.258Z,14.65
2023-03-10T10:25:08.704Z,14.84
2023-03-10T10:27:37.879Z,14.79
2023-03-10T10:30:33.855Z,14.66
2023-03-10T10:33:11.597Z,14.44
2023-03-10T10:36:05.693Z,14.22
2023-03-10T10:38:37.749Z,13.91
2023-03-10T10:41:18.314Z,13.65
2023-03-10T10:43:47.770Z,13.33
2023-03-10T10:46:28.051Z,13.13
2023-03-10T10:49:25.694Z,13.03
2023-03-10T10:52:04.794Z,13.03
2023-03-10T10:54:35.469Z,13.16
2023-03-10T10:57:18.379Z,13.46
2023-03-10T10:59:52.616Z,13.85
2023-03-10T11:02:28.521Z,14.15
2023-03-10T11:05:08.525Z,14.22
2023-03-10T11:07:37.052Z,14.13
2023-03-10T11:10:15.690Z,13.89
2023-03-10T11:12:48.029Z,13.82
2023-03-10T11:15:38.760Z,13.89
2023-03-10T11:18:15.507Z,14.01
2023-03-10T11:21:14.458Z,14.21
2023-03-10T11:23:50.899Z,14.50
2023-03-10T11:26:21.041Z,14.67
2023-03-10T11:28:59.683Z,14.71
2023-03-10T11:31:50.308Z,14.67
2023-03-10T11:34:30.679Z,14.39
2023-03-10T11:37:05.253Z,14.01
2023-03-10T11:39:58.862Z,13.72
2023-03-10T11:42:33.623Z,13.66
2023-03-10T11:45:13.852Z,13.94
2023-03-10T11:47:49.054Z,14.10
2023-03-10T11:50:31.698Z,14.25
2023-03-10T11:53:22.132Z,14.50
2023-03-10T11:55:51.376Z,14.73
2023-03-10T11:58:40.092Z,14.97
2023-03-10T12:01:09.585Z,15.16
2023-03-10T12:03:42.843Z,15.28
2023-03-10T12:06:26.702Z,15.14
2023-03-10T12:08:55.854Z,14.81
2023-03-10T12:11:27.327Z,14.78
2023-03-10T12:14:04.719Z,15.06
2023-03-10T12:16:37.015Z,15.16
2023-03-10T12:19:06.327Z,15.06
2023-03-10T12:21:36.583Z,14.99
2023-03-10T12:24:06.009Z,14.91
2023-03-10T12:26:41.209Z,14.79
2023-03-10T12:29:29.444Z,14.54
2023-03-10T12:31:58.191Z,14.41
2023-03-10T12:34:29.357Z,14.48
2023-03-10T12:37:08.276Z,14.56
2023-03-10T12:39:40.093Z,14.79
2023-03-10T12:42:28.838Z,14.81
2023-03-10T12:45:08.019Z,14.63
2023-03-10T12:47:49.378Z,14.64
2023-03-10T12:50:47.780Z,14.72
2023-03-10T12:53:39.125Z,14.82
2023-03-10T12:56:14.238Z,14.79
2023-03-10T12:58:53.301Z,14.80
2023-03-10T13:01:23.845Z,14.77
2023-03-10T13:03:53.701Z,14.71
2023-03-10T13:06:41.710Z,14.54
2023-03-10T13:09:24.255Z,14.32
2023-03-10T13:12:11.987Z,14.11
2023-03-10T13:14:43.228Z,13.96
2023-03-10T13:17:24.989Z,13.83
2023-03-10T13:20:15.741Z,13.75
2023-03-10T13:22:58.769Z,13.76
2023-03-10T13:25:27.252Z,13.71
2023-03-10T13:27:57.873Z,13.63
2023-03-10T13:30:28.051Z,13.43
2023-03-10T13:33:02.608Z,13.18
2023-03-10T13:35:36.430Z,13.01
2023-03-10T13:38:08.074Z,12.91
2023-03-10T13:40:38.752Z,12.91
2023-03-10T13:43:28.632Z,12.94
2023-03-10T13:45:58.227Z,12.96
2023-03-10T13:48:33.741Z,12.92
2023-03-10T13:51:08.635Z,12.85
2023-03-10T13:53:37.237Z,12.77
2023-03-10T13:56:20.474Z,12.66
2023-03-10T13:58:50.203Z,12.53
2023-03-10T14:01:26.852Z,12.52
2023-03-10T14:04:00.090Z,12.51
2023-03-10T14:06:30.782Z,12.50
2023-03-10T14:09:20.831Z,12.45
2023-03-10T14:11:50.413Z,12.37
2023-03-10T14:14:29.786Z,12.33
2023-03-10T14:17:00.062Z,12.36
2023-03-10T14:19:37.857Z,12.40
2023-03-10T14:22:28.834Z,12.39
2023-03-10T14:25:03.255Z,12.37
2023-03-10T14:27:34.464Z,12.38
2023-03-10T14:30:10.890Z,12.34
2023-03-10T14:32:43.512Z,12.19
2023-03-10T14:35:12.661Z,12.05
2023-03-10T14:37:41.185Z,11.94
2023-03-10T14:40:11.880Z,11.73
2023-03-10T14:42:40.773Z,11.45
2023-03-10T14:45:30.305Z,11.10
2023-03-10T14:47:59.711Z,10.70
2023-03-10T14:50:31.400Z,10.37
2023-03-10T14:53:00.236Z,10.03
2023-03-10T14:55:29.237Z,9.72
2023-03-10T14:58:02.674Z,9.45
2023-03-10T15:00:31.927Z,9.21
2023-03-10T15:03:06.016Z,9.03
2023-03-10T15:05:47.763Z,8.87
2023-03-10T15:08:19.894Z,8.66
2023-03-10T15:10:51.087Z,8.47
2023-03-10T15:13:22.256Z,8.31
2023-03-10T15:15:54.917Z,8.17
2023-03-10T15:18:23.967Z,8.03
2023-03-10T15:21:00.971Z,7.92
2023-03-10T15:23:35.170Z,7.81
2023-03-10T15:26:09.847Z,7.71
2023-03-10T15:28:38.727Z,7.62
2023-03-10T15:31:08.022Z,7.52
2023-03-10T15:33:36.800Z,7.43
2023-03-10T15:36:07.435Z,7.32
2023-03-10T15:38:36.066Z,7.22
2023-03-10T15:41:06.175Z,7.14
2023-03-10T15:43:34.831Z,7.06
2023-03-10T15:46:15.871Z,6.98
2023-03-10T15:48:46.087Z,6.91
2023-03-10T15:51:17.819Z,6.84
2023-03-10T15:53:46.218Z,6.80
2023-03-10T15:56:15.719Z,6.75
2023-03-10T15:58:44.481Z,6.70
2023-03-10T16:01:16.779Z,6.64
2023-03-10T16:03:45.535Z,6.59
2023-03-10T16:06:16.114Z,6.55
2023-03-10T16:08:47.137Z,6.49
2023-03-10T16:11:19.694Z,6.42
2023-03-10T16:13:52.006Z,6.38
2023-03-10T16:16:23.577Z,6.34
2023-03-10T16:18:52.929Z,6.30
2023-03-10T16:21:29.293Z,6.24
2023-03-10T16:23:58.438Z,6.19
2023-03-10T16:26:27.215Z,6.17
2023-03-10T16:28:56.869Z,6.16
2023-03-10T16:31:26.632Z,6.13
2023-03-10T16:33:56.331Z,6.09
2023-03-10T16:36:27.154Z,6.05
2023-03-10T16:38:56.044Z,6.03
2023-03-10T16:41:25.101Z,5.99
2023-03-10T16:43:54.941Z,5.94
2023-03-10T16:46:25.908Z,5.88
2023-03-10T16:48:56.039Z,5.85
2023-03-10T16:51:38.783Z,5.81
2023-03-10T16:54:10.603Z,5.77
2023-03-10T16:56:41.940Z,5.73
2023-03-10T16:59:18.051Z,5.69
2023-03-10T17:01:48.511Z,5.66
2023-03-10T17:04:17.462Z,5.62
2023-03-10T17:06:46.134Z,5.59
2023-03-10T17:09:15.525Z,5.57
2023-03-10T17:11:46.637Z,5.54
2023-03-10T17:14:16.206Z,5.50
2023-03-10T17:16:46.540Z,5.47
2023-03-10T17:19:17.036Z,5.43
2023-03-10T17:21:47.506Z,5.39
2023-03-10T17:24:19.130Z,5.36
2023-03-10T17:26:47.970Z,5.32
2023-03-10T17:29:16.541Z,5.29
2023-03-10T17:31:49.193Z,5.25
2023-03-10T17:34:17.888Z,5.21
2023-03-10T17:36:49.706Z,5.18
2023-03-10T17:39:20.231Z,5.13
2023-03-10T17:41:49.117Z,5.09
2023-03-10T17:44:20.188Z,5.06
2023-03-10T17:46:52.720Z,5.03
2023-03-10T17:49:21.874Z,5.00
2023-03-10T17:51:51.672Z,4.95
2023-03-10T17:54:21.109Z,4.90
2023-03-10T17:56:50.130Z,4.85
2023-03-10T17:59:19.198Z,4.81
2023-03-10T18:01:49.838Z,4.79
2023-03-10T18:04:18.539Z,4.78
2023-03-10T18:06:47.997Z,4.76
2023-03-10T18:09:36.385Z,4.72
2023-03-10T18:12:06.825Z,4.69
2023-03-10T18:14:35.860Z,4.68
2023-03-10T18:17:04.381Z,4.64
2023-03-10T18:19:33.470Z,4.63
2023-03-10T18:22:08.591Z,4.63
2023-03-10T18:24:43.332Z,4.63
2023-03-10T18:27:12.474Z,4.63
2023-03-10T18:29:41.792Z,4.62
2023-03-10T18:32:13.997Z,4.62
2023-03-10T18:34:43.849Z,4.63
2023-03-10T18:37:12.777Z,4.62
2023-03-10T18:39:42.134Z,4.60
2023-03-10T18:42:11.971Z,4.60
2023-03-10T18:44:45.709Z,4.58
2023-03-10T18:47:14.107Z,4.56
2023-03-10T18:49:42.973Z,4.53
2023-03-10T18:52:16.410Z,4.50
2023-03-10T18:54:46.667Z,4.48
2023-03-10T18:57:16.118Z,4.47
2023-03-10T18:59:44.959Z,4.47
2023-03-10T19:02:17.769Z,4.46
2023-03-10T19:04:48.199Z,4.46
2023-03-10T19:07:17.802Z,4.45
2023-03-10T19:09:47.496Z,4.45
2023-03-10T19:12:15.940Z,4.43
2023-03-10T19:14:45.911Z,4.43
2023-03-10T19:17:14.380Z,4.42
2023-03-10T19:19:46.826Z,4.42
2023-03-10T19:22:15.917Z,4.40
2023-03-10T19:24:44.314Z,4.38
2023-03-10T19:27:12.766Z,4.38
2023-03-10T19:29:41.708Z,4.36
2023-03-10T19:32:10.148Z,4.35
2023-03-10T19:34:39.330Z,4.34
2023-03-10T19:37:07.828Z,4.33
2023-03-10T19:39:36.322Z,4.32
2023-03-10T19:42:04.841Z,4.30
2023-03-10T19:44:38.746Z,4.29
2023-03-10T19:47:07.788Z,4.27
2023-03-10T19:49:36.874Z,4.26
2023-03-10T19:52:05.609Z,4.24
2023-03-10T19:54:34.157Z,4.22
2023-03-10T19:57:03.221Z,4.20
2023-03-10T19:59:31.789Z,4.19
2023-03-10T20:02:02.720Z,4.17
2023-03-10T20:04:34.782Z,4.15
2023-03-10T20:07:03.259Z,4.14
2023-03-10T20:09:34.032Z,4.13
2023-03-10T20:12:02.677Z,4.12
2023-03-10T20:14:31.487Z,4.11
2023-03-10T20:16:59.956Z,4.09
2023-03-10T20:19:28.642Z,4.08
2023-03-10T20:21:57.639Z,4.07
2023-03-10T20:24:27.142Z,4.06
2023-03-10T20:26:58.564Z,4.04
2023-03-10T20:29:33.204Z,4.03
2023-03-10T20:32:01.961Z,4.01
2023-03-10T20:34:31.073Z,3.99
2023-03-10T20:36:59.534Z,3.98
2023-03-10T20:39:32.472Z,3.96
2023-03-10T20:42:00.923Z,3.96
2023-03-10T20:44:30.016Z,3.96
2023-03-10T20:47:00.061Z,3.94
2023-03-10T20:49:29.552Z,3.93
2023-03-10T20:51:57.971Z,3.90
2023-03-10T20:54:26.416Z,3.89
2023-03-10T20:56:55.086Z,3.88
2023-03-10T20:59:25.157Z,3.87
2023-03-10T21:01:54.116Z,3.86
2023-03-10T21:04:22.684Z,3.85
2023-03-10T21:06:51.155Z,3.85
2023-03-10T21:09:19.825Z,3.85
2023-03-10T21:11:50.523Z,3.84
2023-03-10T21:14:19.384Z,3.84
2023-03-10T21:16:47.974Z,3.83
2023-03-10T21:19:24.062Z,3.83
2023-03-10T21:21:53.761Z,3.82
2023-03-10T21:24:22.239Z,3.82
2023-03-10T21:26:52.773Z,3.82
2023-03-10T21:29:21.322Z,3.83
2023-03-10T21:31:49.867Z,3.83
2023-03-10T21:34:18.381Z,3.83
2023-03-10T21:36:46.825Z,3.82
2023-03-10T21:39:15.338Z,3.81
2023-03-10T21:41:44.347Z,3.81
2023-03-10T21:44:13.074Z,3.80
2023-03-10T21:46:42.029Z,3.80
2023-03-10T21:49:13.278Z,3.80
2023-03-10T21:51:45.411Z,3.80
2023-03-10T21:54:13.969Z,3.80
2023-03-10T21:56:45.342Z,3.80
2023-03-10T21:59:14.146Z,3.79
2023-03-10T22:01:43.526Z,3.79
2023-03-10T22:04:12.391Z,3.78
2023-03-10T22:06:40.947Z,3.77
2023-03-10T22:09:10.597Z,3.76
2023-03-10T22:11:39.104Z,3.75
2023-03-10T22:14:10.648Z,3.73
2023-03-10T22:16:39.155Z,3.72
2023-03-10T22:19:09.756Z,3.71
2023-03-10T22:21:38.665Z,3.70
2023-03-10T22:24:07.242Z,3.70
2023-03-10T22:26:36.320Z,3.70
2023-03-10T22:29:04.945Z,3.69
2023-03-10T22:31:33.495Z,3.69
2023-03-10T22:34:02.684Z,3.69
2023-03-10T22:36:34.232Z,3.68
2023-03-10T22:39:03.763Z,3.68
2023-03-10T22:41:32.414Z,3.68
2023-03-10T22:44:01.774Z,3.69
2023-03-10T22:46:32.646Z,3.68
2023-03-10T22:49:02.059Z,3.69
2023-03-10T22:51:30.666Z,3.70
2023-03-10T22:53:59.325Z,3.71
2023-03-10T22:56:27.838Z,3.70
2023-03-10T22:58:56.340Z,3.69
2023-03-10T23:01:24.830Z,3.69
2023-03-10T23:03:53.286Z,3.69
2023-03-10T23:06:24.826Z,3.69
2023-03-10T23:08:57.387Z,3.68
2023-03-10T23:11:26.601Z,3.67
2023-03-10T23:13:59.570Z,3.65
2023-03-10T23:16:34.562Z,3.64
2023-03-10T23:19:04.944Z,3.64
2023-03-10T23:21:35.116Z,3.63
2023-03-10T23:24:03.791Z,3.61
2023-03-10T23:26:35.314Z,3.60
2023-03-10T23:29:04.800Z,3.60
2023-03-10T23:31:34.048Z,3.59
2023-03-10T23:34:12.458Z,3.58
2023-03-10T23:36:41.467Z,3.57
2023-03-10T23:39:13.732Z,3.56
2023-03-10T23:41:43.181Z,3.55
2023-03-10T23:44:11.641Z,3.54
2023-03-10T23:46:40.097Z,3.52
2023-03-10T23:49:08.756Z,3.50
2023-03-10T23:51:37.192Z,3.48
2023-03-10T23:54:05.957Z,3.47
2023-03-10T23:56:34.373Z,3.48
2023-03-10T23:59:02.969Z,3.48
